Aeroporto :
LOGIN :

Iscrizione | Disclaimer

   EN    FR    IT 

 










Sommario :    VFR   VFR Marginale   IFR   IFR Intensivo   IFR Molto Intensivo
Visibilità : 
Base nubi : 
>= 8 km
>= 3000ft
5 / 8 km
1000 / 3000 ft
1500m / 5 km
500 / 1000 ft
800 / 1500m
200 / 500 ft
< 800m
< 200 ft
Simboli :   Temporali  Nebbia  Neve Forte  Precipitazioni Forti  Vento > 20 kt
SIGMETs :   Varie  Temporali  Ghiacco  Turbolenza  Onda orograficha  Ceneri Vulcaniche






- Altitudine del aeroporto : 392 ft
- Codice IATA : CDG


LFPG - Paris-Aeroport Charles De Gaulle

ULTIMO METAR :
  • 122130Z 21011KT 9999 FEW043 BKN060 BKN086 05/03 Q1002 NOSIG

METARs OBSOLETI :
  • 122100Z 21011KT CAVOK 04/02 Q1002 NOSIG
  • 122030Z 20010KT CAVOK 04/02 Q1003 NOSIG
  • 122000Z 21009KT CAVOK 04/02 Q1003 NOSIG
  • 121930Z 21008KT CAVOK 04/02 Q1003 NOSIG
  • 121900Z 21007KT CAVOK 04/03 Q1003 NOSIG

TAF TAF LFPG
Valido dal 12 a 18 ore il 14 a 00 ore UTC


121700Z 1218/1324 23008KT 9999 FEW030 TX08/1313Z TN03/1304Z
PROB30
TEMPO 1222/1223 SCT040TCU
PROB40
TEMPO 1304/1307 4000 BR BKN004
PROB40
TEMPO 1311/1315 SCT013TCU SCT020
TEMPO 1320/1324 BKN012
BECMG 1320/1322 17010KT
ATIS : +33 1 48 62 10 92



MetMap, La meteo Aeronautica in un colpo d'occhio ! - Copyright ORBIFLY Dicembre 2007 - Disclaimer

ORBIFLY MET'MAP TEAM :

Programmazione e sviluppo : Alexandra Zaïnal
Concezione e sviluppo : Baudouin d'Aumeries
Co-Programmazione e sviluppo : Marc-Olivier Méhu
Supporto tecnico e logistico : Manuel Goepfert
Aiuto per la traduzione : Arnaldo La Scala

Contatto : metmap@orbifly.com




FONTI E CREDITI :

   NOAA